Time;durP1;ratioP1;P1;durP2;ratioP2;P2;SDS_P1;SDS_P2;PMS_P1;PMS_P2;Temp;Humidity;BMP_temperature;BMP_pressure;BME280_temperature;BME280_humidity;BME280_pressure;Samples;Min_cycle;Max_cycle;Signal;HPM_P1;HPM_P2
2022/01/02 00:00:00;;;;;;;10.23;6.03;;;11.10;99.90;;;;;;4888607;29;20047;-88
2022/01/02 00:02:29;;;;;;;10.10;6.15;;;11.00;99.90;;;;;;4908978;29;20048;-89
2022/01/02 00:05:06;;;;;;;12.32;6.30;;;11.00;99.90;;;;;;4913880;29;20055;-88
2022/01/02 00:07:52;;;;;;;9.50;5.55;;;11.00;99.90;;;;;;4900580;29;20059;-87
2022/01/02 00:10:25;;;;;;;11.30;5.85;;;11.00;99.90;;;;;;4893357;29;20106;-89
2022/01/02 00:12:57;;;;;;;12.35;5.50;;;11.00;99.90;;;;;;4905058;29;20047;-87
2022/01/02 00:16:11;;;;;;;12.27;5.97;;;11.00;99.90;;;;;;4920790;29;20052;-87
2022/01/02 00:18:39;;;;;;;10.95;6.45;;;11.00;99.90;;;;;;4920318;29;20489;-90
2022/01/02 00:21:11;;;;;;;16.83;6.47;;;11.00;99.90;;;;;;4905847;29;20082;-89
2022/01/02 00:23:51;;;;;;;12.02;6.13;;;11.00;99.90;;;;;;4889489;29;20580;-89
2022/01/02 00:26:19;;;;;;;14.70;6.20;;;11.00;99.90;;;;;;4893548;29;20469;-90
2022/01/02 00:28:48;;;;;;;13.40;6.35;;;10.90;99.90;;;;;;4919790;29;20051;-88
2022/01/02 00:31:15;;;;;;;14.70;7.32;;;11.00;99.90;;;;;;4915976;29;20066;-88
2022/01/02 00:33:41;;;;;;;11.27;5.68;;;11.00;99.90;;;;;;4884338;29;20047;-87
2022/01/02 00:36:07;;;;;;;11.07;5.90;;;11.00;99.90;;;;;;4899552;29;20131;-88
2022/01/02 00:38:35;;;;;;;12.73;6.00;;;11.00;99.90;;;;;;4902017;29;20218;-87
2022/01/02 00:41:04;;;;;;;15.02;6.50;;;10.90;99.90;;;;;;4920496;29;20052;-87
2022/01/02 00:43:45;;;;;;;12.52;6.53;;;11.00;99.90;;;;;;4913114;29;20051;-87
2022/01/02 00:46:16;;;;;;;15.68;6.53;;;10.90;99.90;;;;;;4900973;29;20429;-88
2022/01/02 00:48:44;;;;;;;15.23;6.97;;;10.90;99.90;;;;;;4893986;29;20126;-89
2022/01/02 00:51:52;;;;;;;;;;;;;;;;;;;;;
2022/01/02 00:54:27;;;;;;;10.57;6.22;;;10.90;99.90;;;;;;4913681;29;20051;-89
2022/01/02 00:57:04;;;;;;;15.45;7.40;;;10.90;99.90;;;;;;4913072;29;20525;-87
2022/01/02 00:59:44;;;;;;;15.10;6.55;;;10.90;99.90;;;;;;4891866;29;20075;-86
2022/01/02 01:02:16;;;;;;;14.90;6.97;;;11.00;99.90;;;;;;4914641;29;20499;-86
2022/01/02 01:04:43;;;;;;;13.30;6.20;;;10.90;99.90;;;;;;4884352;29;20342;-88
2022/01/02 01:07:10;;;;;;;11.77;6.57;;;10.90;99.90;;;;;;4897304;29;20510;-87
2022/01/02 01:09:36;;;;;;;13.55;7.13;;;11.00;99.90;;;;;;4898954;29;20055;-88
2022/01/02 01:12:21;;;;;;;14.85;7.20;;;11.00;99.90;;;;;;4910651;29;20048;-89
2022/01/02 01:14:53;;;;;;;15.60;7.63;;;11.00;99.90;;;;;;4903393;29;20039;-89
2022/01/02 01:17:25;;;;;;;18.45;7.60;;;11.00;99.90;;;;;;4897102;29;20187;-90
2022/01/02 01:20:01;;;;;;;18.23;7.95;;;11.00;99.90;;;;;;4899684;29;20044;-89
2022/01/02 01:22:37;;;;;;;;;;;;;;;;;;;;;
2022/01/02 01:25:15;;;;;;;18.75;7.45;;;11.00;99.90;;;;;;4907555;29;20055;-89
2022/01/02 01:28:00;;;;;;;16.77;8.07;;;11.00;99.90;;;;;;4902396;29;20048;-87
2022/01/02 01:30:29;;;;;;;22.52;7.82;;;11.10;99.90;;;;;;4897073;29;20607;-87
2022/01/02 01:32:58;;;;;;;19.13;7.72;;;11.10;99.90;;;;;;4911096;29;20426;-89
2022/01/02 01:35:26;;;;;;;18.38;7.30;;;11.10;99.90;;;;;;4904886;29;20134;-88
2022/01/02 01:38:01;;;;;;;15.73;7.05;;;11.00;99.90;;;;;;4907077;29;20043;-86
2022/01/02 01:40:35;;;;;;;15.60;7.28;;;11.00;99.90;;;;;;4895680;29;20564;-88
2022/01/02 01:43:06;;;;;;;16.13;7.70;;;11.00;99.90;;;;;;4888762;29;20052;-86
2022/01/02 01:45:34;;;;;;;17.58;7.50;;;11.00;99.90;;;;;;4892055;29;20146;-86
2022/01/02 01:48:05;;;;;;;15.65;8.18;;;11.00;99.90;;;;;;4899108;29;20044;-86
2022/01/02 01:50:42;;;;;;;15.00;7.68;;;11.00;99.90;;;;;;4904398;29;20044;-90
2022/01/02 01:53:11;;;;;;;16.70;7.55;;;11.00;99.90;;;;;;4889564;29;20079;-89
2022/01/02 01:55:50;;;;;;;18.77;8.32;;;11.00;99.90;;;;;;4897230;29;20050;-87
2022/01/02 01:58:18;;;;;;;21.17;8.90;;;11.00;99.90;;;;;;4910491;29;20080;-87
2022/01/02 02:00:49;;;;;;;21.35;8.82;;;11.00;99.90;;;;;;4890860;29;20079;-87
2022/01/02 02:03:15;;;;;;;22.50;8.32;;;11.00;99.90;;;;;;4887203;29;20639;-86
2022/01/02 02:05:44;;;;;;;19.40;8.80;;;11.00;99.90;;;;;;4909768;29;20131;-86
2022/01/02 02:08:10;;;;;;;17.33;8.82;;;11.00;99.90;;;;;;4909131;29;20039;-85
2022/01/02 02:10:41;;;;;;;18.45;8.30;;;11.10;99.90;;;;;;4889368;29;20083;-86
2022/01/02 02:13:07;;;;;;;18.90;8.80;;;11.00;99.90;;;;;;4913788;29;20063;-86
2022/01/02 02:15:43;;;;;;;16.67;8.40;;;11.00;99.90;;;;;;4913431;29;20056;-89
2022/01/02 02:18:08;;;;;;;;;;;11.10;99.90;;;;;;4905219;29;20051;-86
2022/01/02 02:20:36;;;;;;;28.53;8.77;;;11.10;99.90;;;;;;4888162;29;19923;-88
2022/01/02 02:23:03;;;;;;;19.40;8.57;;;11.00;99.90;;;;;;5351079;23;20102;-77
2022/01/02 02:25:32;;;;;;;22.20;9.45;;;11.00;99.90;;;;;;4928161;29;20063;-77
2022/01/02 02:28:04;;;;;;;22.85;8.30;;;11.00;99.90;;;;;;4901201;29;20063;-78
2022/01/02 02:30:32;;;;;;;19.20;8.43;;;11.10;99.90;;;;;;4905706;29;20399;-77
2022/01/02 02:33:00;;;;;;;21.60;9.00;;;11.00;99.90;;;;;;4900232;29;20064;-80
2022/01/02 02:35:28;;;;;;;22.05;8.65;;;11.10;99.90;;;;;;4905096;29;20080;-77
2022/01/02 02:37:54;;;;;;;27.20;9.20;;;11.10;99.90;;;;;;4913073;29;20154;-76
2022/01/02 02:40:22;;;;;;;22.60;8.95;;;11.10;99.90;;;;;;4899916;29;20502;-76
2022/01/02 02:43:09;;;;;;;22.20;9.15;;;11.00;99.90;;;;;;4899744;29;20051;-78
2022/01/02 02:51:20;;;;;;;23.17;9.45;;;11.00;99.90;;;;;;4909060;29;20506;-81
2022/01/02 02:53:48;;;;;;;24.10;9.48;;;11.00;99.90;;;;;;4900092;29;20044;-77
2022/01/02 02:56:26;;;;;;;15.80;8.60;;;11.10;99.90;;;;;;4916732;29;20119;-76
2022/01/02 02:58:57;;;;;;;18.52;8.48;;;11.00;99.90;;;;;;4899122;29;20131;-76
2022/01/02 03:01:25;;;;;;;23.65;9.27;;;11.00;99.90;;;;;;4900393;29;20040;-78
2022/01/02 03:03:51;;;;;;;19.42;8.57;;;11.00;99.90;;;;;;4883801;29;20048;-76
2022/01/02 03:06:18;;;;;;;20.67;9.27;;;11.00;99.90;;;;;;4899191;29;20051;-79
2022/01/02 03:08:45;;;;;;;18.77;8.77;;;11.00;99.90;;;;;;4898448;29;20048;-77
2022/01/02 03:11:18;;;;;;;22.52;9.25;;;11.00;99.90;;;;;;4900497;29;20486;-76
2022/01/02 03:13:46;;;;;;;18.45;9.80;;;11.00;99.90;;;;;;4911920;29;20062;-77
2022/01/02 03:16:12;;;;;;;22.10;9.63;;;11.00;99.90;;;;;;4903308;29;20156;-76
2022/01/02 03:18:38;;;;;;;25.40;9.57;;;11.00;99.90;;;;;;4899693;29;20159;-77
2022/01/02 03:21:05;;;;;;;23.00;9.32;;;11.00;99.90;;;;;;4898844;29;20051;-77
2022/01/02 03:23:30;;;;;;;22.55;10.07;;;11.00;99.90;;;;;;4884381;29;20052;-77
2022/01/02 03:25:56;;;;;;;19.95;8.95;;;11.00;99.90;;;;;;4879545;29;20067;-77
2022/01/02 03:28:22;;;;;;;22.35;9.10;;;11.00;99.90;;;;;;4896459;29;20096;-78
2022/01/02 03:30:48;;;;;;;19.63;8.95;;;11.00;99.90;;;;;;4915061;29;20045;-77
2022/01/02 03:33:14;;;;;;;20.75;9.63;;;11.00;99.90;;;;;;4892924;29;20056;-76
2022/01/02 03:35:40;;;;;;;23.45;9.00;;;11.00;99.90;;;;;;4882412;29;20072;-76
2022/01/02 03:38:06;;;;;;;22.92;10.10;;;11.00;99.90;;;;;;4902091;29;20048;-76
2022/01/02 03:40:32;;;;;;;20.50;9.60;;;11.00;99.90;;;;;;4899764;29;20052;-76
2022/01/02 03:42:58;;;;;;;22.55;8.70;;;11.00;99.90;;;;;;4894150;29;20095;-78
2022/01/02 03:45:24;;;;;;;22.80;9.32;;;11.00;99.90;;;;;;4898659;29;20044;-77
2022/01/02 03:47:49;;;;;;;22.90;9.60;;;11.00;99.90;;;;;;4899789;29;20054;-77
2022/01/02 03:50:15;;;;;;;25.23;8.80;;;11.00;99.90;;;;;;4895858;29;20490;-77
2022/01/02 03:52:41;;;;;;;22.05;9.32;;;11.00;99.90;;;;;;4898317;29;20060;-77
2022/01/02 03:55:08;;;;;;;23.77;8.52;;;11.00;99.90;;;;;;4869603;29;20143;-78
2022/01/02 03:57:34;;;;;;;19.58;8.85;;;11.00;99.90;;;;;;4900847;29;20123;-77
2022/01/02 04:00:01;;;;;;;20.10;8.07;;;11.00;99.90;;;;;;4897040;29;20068;-76
2022/01/02 04:02:26;;;;;;;25.90;9.25;;;11.00;99.90;;;;;;4902721;29;20055;-78
2022/01/02 04:04:52;;;;;;;22.92;8.27;;;11.00;99.90;;;;;;4899452;29;20449;-78
2022/01/02 04:07:18;;;;;;;23.45;8.60;;;11.00;99.90;;;;;;4895802;29;20048;-78
2022/01/02 04:09:43;;;;;;;19.90;7.97;;;11.00;99.90;;;;;;4903184;29;20043;-77
2022/01/02 04:12:09;;;;;;;21.00;7.70;;;11.00;99.90;;;;;;4901261;29;20066;-80
2022/01/02 04:14:35;;;;;;;19.85;7.97;;;11.10;99.90;;;;;;4881261;29;20079;-77
2022/01/02 04:17:00;;;;;;;16.95;6.65;;;11.10;99.90;;;;;;4907968;29;20044;-76
2022/01/02 04:19:26;;;;;;;19.30;7.45;;;11.00;99.90;;;;;;4915246;29;20095;-76
2022/01/02 04:21:52;;;;;;;19.98;7.80;;;11.00;99.90;;;;;;4897300;29;20052;-80
2022/01/02 04:24:18;;;;;;;20.58;8.35;;;11.10;99.90;;;;;;4897666;29;20107;-77
2022/01/02 04:26:44;;;;;;;20.38;8.05;;;11.10;99.90;;;;;;4879358;29;20139;-76
2022/01/02 04:29:09;;;;;;;19.50;8.02;;;11.10;99.90;;;;;;4897818;29;20052;-76
2022/01/02 04:31:35;;;;;;;21.33;7.90;;;11.10;99.90;;;;;;4898689;29;20100;-76
2022/01/02 04:34:01;;;;;;;21.73;7.78;;;11.00;99.90;;;;;;4883553;29;20055;-76
2022/01/02 04:36:27;;;;;;;21.35;7.72;;;11.10;99.90;;;;;;4896829;29;20062;-78
2022/01/02 04:38:53;;;;;;;20.45;7.05;;;11.10;99.90;;;;;;4911591;29;20079;-80
2022/01/02 04:41:18;;;;;;;19.58;7.28;;;11.10;99.90;;;;;;4905102;29;20048;-76
2022/01/02 04:43:44;;;;;;;22.33;7.35;;;11.20;99.90;;;;;;4902106;29;20494;-76
2022/01/02 04:46:10;;;;;;;22.85;7.78;;;11.20;99.90;;;;;;4862224;29;20071;-76
2022/01/02 04:48:35;;;;;;;19.02;7.15;;;11.20;99.90;;;;;;4901169;29;20052;-77
2022/01/02 04:51:01;;;;;;;17.38;6.90;;;11.20;99.90;;;;;;4917837;29;20127;-76
2022/01/02 04:53:27;;;;;;;20.80;8.02;;;11.20;99.90;;;;;;4896954;29;20052;-78
2022/01/02 04:55:52;;;;;;;20.55;8.15;;;11.20;99.90;;;;;;4880355;29;20051;-76
2022/01/02 04:58:18;;;;;;;19.83;6.50;;;11.20;99.90;;;;;;4892784;29;20490;-77
2022/01/02 05:00:44;;;;;;;18.60;7.38;;;11.20;99.90;;;;;;4897693;29;20052;-76
2022/01/02 05:03:10;;;;;;;21.73;7.03;;;11.20;99.90;;;;;;4865999;29;20056;-76
2022/01/02 05:05:36;;;;;;;21.30;6.95;;;11.20;99.90;;;;;;4884393;29;20096;-76
2022/01/02 05:08:02;;;;;;;17.50;6.32;;;11.30;99.90;;;;;;4882124;29;20466;-76
2022/01/02 05:10:28;;;;;;;18.58;6.78;;;11.30;99.90;;;;;;4905422;29;20150;-76
2022/01/02 05:12:53;;;;;;;22.50;6.63;;;11.30;99.90;;;;;;4915710;29;20196;-79
2022/01/02 05:15:19;;;;;;;17.13;6.32;;;11.30;99.90;;;;;;4913636;29;20619;-76
2022/01/02 05:17:45;;;;;;;15.75;5.95;;;11.40;99.90;;;;;;4897358;29;20040;-76
2022/01/02 05:20:11;;;;;;;18.80;5.90;;;11.40;99.90;;;;;;4897577;29;20099;-76
2022/01/02 05:22:36;;;;;;;19.77;6.00;;;11.40;99.90;;;;;;4903401;29;20076;-80
2022/01/02 05:25:04;;;;;;;26.13;5.97;;;11.40;99.90;;;;;;4908035;29;20130;-76
2022/01/02 05:27:29;;;;;;;19.70;7.30;;;11.40;99.90;;;;;;4903518;29;20044;-76
2022/01/02 05:29:55;;;;;;;20.15;5.88;;;11.40;99.90;;;;;;4922633;29;20054;-76
2022/01/02 05:32:21;;;;;;;17.45;6.22;;;11.40;99.90;;;;;;4899236;29;20044;-79
2022/01/02 05:34:46;;;;;;;16.63;6.03;;;11.40;99.90;;;;;;4907063;29;20610;-76
2022/01/02 05:37:12;;;;;;;18.33;6.30;;;11.40;99.90;;;;;;4892683;29;20529;-75
2022/01/02 05:39:38;;;;;;;25.92;6.53;;;11.40;99.90;;;;;;4902690;29;20055;-77
2022/01/02 05:42:04;;;;;;;19.13;5.97;;;11.40;99.90;;;;;;4919279;29;20232;-76
2022/01/02 05:44:30;;;;;;;27.50;6.47;;;11.40;99.90;;;;;;4922564;29;20132;-75
2022/01/02 05:46:57;;;;;;;19.33;6.38;;;11.40;99.90;;;;;;4908660;29;20510;-75
2022/01/02 05:49:22;;;;;;;18.20;6.22;;;11.40;99.90;;;;;;4887133;29;20561;-78
2022/01/02 05:51:48;;;;;;;19.48;7.03;;;11.40;99.90;;;;;;4893147;29;20071;-76
2022/01/02 05:54:14;;;;;;;16.50;4.82;;;11.40;99.90;;;;;;4891766;29;20070;-76
2022/01/02 05:56:40;;;;;;;27.77;6.65;;;11.40;99.90;;;;;;4938513;29;20127;-75
2022/01/02 05:59:06;;;;;;;20.55;5.70;;;11.50;99.90;;;;;;4913243;29;20107;-75
2022/01/02 06:01:32;;;;;;;20.55;5.47;;;11.50;99.90;;;;;;4920379;29;20142;-75
2022/01/02 06:03:57;;;;;;;25.95;6.30;;;11.50;99.90;;;;;;4911526;29;20557;-75
2022/01/02 06:06:23;;;;;;;18.77;5.63;;;11.50;99.90;;;;;;4893173;29;20052;-76
2022/01/02 06:08:49;;;;;;;15.23;5.97;;;11.50;99.90;;;;;;4901306;29;20056;-78
2022/01/02 06:11:14;;;;;;;17.05;6.28;;;11.50;99.90;;;;;;4872843;29;20692;-76
2022/01/02 06:13:40;;;;;;;21.98;5.85;;;11.50;99.90;;;;;;4881109;29;20454;-76
2022/01/02 06:16:08;;;;;;;16.00;5.80;;;11.60;99.90;;;;;;4902657;29;20055;-83
2022/01/02 06:18:34;;;;;;;17.50;5.70;;;11.50;99.90;;;;;;4909007;29;20051;-77
2022/01/02 06:20:59;;;;;;;22.33;6.22;;;11.60;99.90;;;;;;4910111;29;20052;-76
2022/01/02 06:23:25;;;;;;;15.50;5.53;;;11.60;99.90;;;;;;4886591;29;20416;-77
2022/01/02 06:25:51;;;;;;;30.85;6.75;;;11.60;99.90;;;;;;4889463;29;20115;-76
2022/01/02 06:28:17;;;;;;;17.15;5.40;;;11.60;99.90;;;;;;4889286;29;20501;-77
2022/01/02 06:30:43;;;;;;;17.83;6.15;;;11.60;99.90;;;;;;4902425;29;20048;-75
2022/01/02 06:33:09;;;;;;;13.60;4.75;;;11.70;99.90;;;;;;4879983;29;20138;-82
2022/01/02 06:35:35;;;;;;;16.60;5.40;;;11.70;99.90;;;;;;4880928;29;20080;-74
2022/01/02 06:38:16;;;;;;;12.32;5.70;;;11.70;99.90;;;;;;4887200;29;20119;-74
2022/01/02 06:40:42;;;;;;;17.02;5.18;;;11.70;99.90;;;;;;4893989;29;20052;-75
2022/01/02 06:43:08;;;;;;;15.73;5.07;;;11.70;99.90;;;;;;4914029;29;20059;-80
2022/01/02 06:45:34;;;;;;;15.32;5.00;;;11.70;99.90;;;;;;4879525;29;20045;-80
2022/01/02 06:48:01;;;;;;;16.00;4.82;;;11.70;99.90;;;;;;4897638;29;20052;-75
2022/01/02 06:50:26;;;;;;;18.55;4.47;;;11.80;99.90;;;;;;4896595;29;20048;-77
2022/01/02 06:52:52;;;;;;;14.40;4.30;;;11.70;99.90;;;;;;4895192;29;20470;-75
2022/01/02 06:55:18;;;;;;;11.40;3.80;;;11.70;99.90;;;;;;4896593;29;20057;-76
2022/01/02 06:57:43;;;;;;;14.07;4.55;;;11.80;99.90;;;;;;4895804;29;20120;-80
2022/01/02 07:00:09;;;;;;;10.32;4.32;;;11.70;99.90;;;;;;4893257;29;20439;-76
2022/01/02 07:02:35;;;;;;;11.75;4.07;;;11.70;99.90;;;;;;4879283;29;20053;-76
2022/01/02 07:05:01;;;;;;;15.30;4.60;;;11.70;99.90;;;;;;4901136;29;20506;-80
2022/01/02 07:07:27;;;;;;;17.20;4.00;;;11.70;99.90;;;;;;4896277;29;20056;-78
2022/01/02 07:09:52;;;;;;;13.30;4.30;;;11.70;99.90;;;;;;4905146;29;20556;-75
2022/01/02 07:12:18;;;;;;;13.02;4.97;;;11.70;99.90;;;;;;4898809;29;20135;-75
2022/01/02 07:14:44;;;;;;;10.40;4.40;;;11.70;99.90;;;;;;4896406;29;20049;-77
2022/01/02 07:17:09;;;;;;;8.25;4.03;;;11.70;99.90;;;;;;4898499;29;20517;-75
2022/01/02 07:19:35;;;;;;;15.95;4.90;;;11.70;99.90;;;;;;4897773;29;20048;-76
2022/01/02 07:22:02;;;;;;;11.50;4.22;;;11.70;99.90;;;;;;4883961;29;20060;-75
2022/01/02 07:24:28;;;;;;;13.90;4.43;;;11.60;99.90;;;;;;4901498;29;20562;-77
2022/01/02 07:26:54;;;;;;;12.63;5.30;;;11.60;99.90;;;;;;4879691;29;20056;-75
2022/01/02 07:29:20;;;;;;;15.70;5.20;;;11.60;99.90;;;;;;4896943;29;20053;-75
2022/01/02 07:31:45;;;;;;;14.30;5.38;;;11.60;99.90;;;;;;4896984;29;20048;-76
2022/01/02 07:34:11;;;;;;;14.43;5.10;;;11.60;99.90;;;;;;4902532;29;20777;-75
2022/01/02 07:36:39;;;;;;;16.48;5.43;;;11.50;99.90;;;;;;4907889;29;20252;-76
2022/01/02 07:39:06;;;;;;;12.40;4.70;;;11.50;99.90;;;;;;4899702;29;20052;-75
2022/01/02 07:41:32;;;;;;;14.93;4.90;;;11.50;99.90;;;;;;4899620;29;20459;-75
2022/01/02 07:43:59;;;;;;;14.05;5.07;;;11.40;99.90;;;;;;4906127;29;20057;-77
2022/01/02 07:46:25;;;;;;;9.85;5.10;;;11.40;99.90;;;;;;4897239;29;20063;-76
2022/01/02 07:48:52;;;;;;;13.02;5.00;;;11.40;99.90;;;;;;4897958;29;20048;-76
2022/01/02 07:51:17;;;;;;;16.50;5.22;;;11.40;99.90;;;;;;4897333;29;20056;-77
2022/01/02 07:53:43;;;;;;;15.18;5.03;;;11.40;99.90;;;;;;4914669;29;20064;-76
2022/01/02 07:56:10;;;;;;;13.18;6.40;;;11.40;99.90;;;;;;4896716;29;20061;-77
2022/01/02 07:58:36;;;;;;;12.95;5.38;;;11.30;99.90;;;;;;4894501;29;20490;-76
2022/01/02 08:01:02;;;;;;;12.25;4.90;;;11.30;99.90;;;;;;4880424;29;20064;-75
2022/01/02 08:03:27;;;;;;;8.25;4.57;;;11.30;99.90;;;;;;4905373;29;20050;-75
2022/01/02 08:05:53;;;;;;;14.15;4.60;;;11.30;99.90;;;;;;4901181;29;20151;-77
2022/01/02 08:08:19;;;;;;;11.48;4.97;;;11.30;99.90;;;;;;4902314;29;20491;-76
2022/01/02 08:10:44;;;;;;;17.17;4.97;;;11.30;99.90;;;;;;4861477;29;20192;-75
2022/01/02 08:13:10;;;;;;;11.98;5.15;;;11.30;99.90;;;;;;4894969;29;20481;-75
2022/01/02 08:15:36;;;;;;;19.45;5.75;;;11.30;99.90;;;;;;4881618;29;20051;-76
2022/01/02 08:18:01;;;;;;;11.40;5.72;;;11.30;99.90;;;;;;4880301;29;20088;-75
2022/01/02 08:20:27;;;;;;;19.10;5.45;;;11.30;99.90;;;;;;4897470;29;20054;-76
2022/01/02 08:22:56;;;;;;;18.00;5.63;;;11.30;99.90;;;;;;4870834;29;20502;-77
2022/01/02 08:25:22;;;;;;;15.32;5.20;;;11.20;99.90;;;;;;4880558;29;20273;-78
2022/01/02 08:27:47;;;;;;;15.23;5.30;;;11.20;99.90;;;;;;4884243;29;20049;-77
2022/01/02 08:30:13;;;;;;;11.07;5.45;;;11.30;99.90;;;;;;4896302;29;20759;-78
2022/01/02 08:32:39;;;;;;;12.60;5.90;;;11.20;99.90;;;;;;4895445;29;20055;-77
2022/01/02 08:35:06;;;;;;;17.60;5.60;;;11.20;99.90;;;;;;4894934;29;20050;-75
2022/01/02 08:37:32;;;;;;;10.05;5.25;;;11.20;99.90;;;;;;4899783;29;20052;-76
2022/01/02 08:39:58;;;;;;;13.20;5.72;;;11.20;99.90;;;;;;4895370;29;20407;-76
2022/01/02 08:42:24;;;;;;;16.45;5.80;;;11.20;99.90;;;;;;4909757;29;20490;-76
2022/01/02 08:44:49;;;;;;;14.65;6.20;;;11.20;99.90;;;;;;4900245;29;20495;-76
2022/01/02 08:47:15;;;;;;;12.18;5.10;;;11.20;99.90;;;;;;4894501;29;20052;-76
2022/01/02 08:49:42;;;;;;;10.73;5.65;;;11.10;99.90;;;;;;4902924;29;20056;-75
2022/01/02 08:52:08;;;;;;;12.15;5.05;;;11.20;99.90;;;;;;4880795;29;20096;-76
2022/01/02 08:54:33;;;;;;;15.05;4.60;;;11.20;99.90;;;;;;4901602;29;20052;-75
2022/01/02 08:57:02;;;;;;;11.20;5.30;;;11.20;99.90;;;;;;4894883;29;20103;-76
2022/01/02 08:59:28;;;;;;;14.35;5.38;;;11.10;99.90;;;;;;4893747;29;20170;-82
2022/01/02 09:01:55;;;;;;;16.30;9.20;;;11.20;99.90;;;;;;4897361;29;20151;-78
2022/01/02 09:04:20;;;;;;;14.02;5.07;;;11.20;99.90;;;;;;4904837;29;20101;-75
2022/01/02 09:06:46;;;;;;;11.88;5.18;;;11.10;99.90;;;;;;4896306;29;20131;-75
2022/01/02 09:09:12;;;;;;;11.13;5.47;;;11.10;99.90;;;;;;4881480;29;20052;-74
2022/01/02 09:11:38;;;;;;;18.35;6.10;;;11.20;99.90;;;;;;4880356;29;20051;-77
2022/01/02 09:14:04;;;;;;;19.27;6.00;;;11.10;99.90;;;;;;4887802;29;20044;-75
2022/01/02 09:16:30;;;;;;;15.88;5.90;;;11.20;99.90;;;;;;4888372;29;20080;-76
2022/01/02 09:18:56;;;;;;;13.85;5.40;;;11.20;99.90;;;;;;4878811;29;20053;-75
2022/01/02 09:21:22;;;;;;;9.80;4.80;;;11.10;99.90;;;;;;4893734;29;20060;-75
2022/01/02 09:23:48;;;;;;;10.25;4.97;;;11.20;99.90;;;;;;4879540;29;20048;-75
2022/01/02 09:26:14;;;;;;;10.18;5.20;;;11.20;99.90;;;;;;4898446;29;20418;-77
2022/01/02 09:28:40;;;;;;;10.60;5.18;;;11.20;99.90;;;;;;4904147;29;20123;-77
2022/01/02 09:31:06;;;;;;;13.57;5.10;;;11.20;99.90;;;;;;4892247;29;20053;-77
2022/01/02 09:33:31;;;;;;;10.25;5.28;;;11.20;99.90;;;;;;4893636;29;20049;-77
2022/01/02 09:35:57;;;;;;;12.85;5.82;;;11.20;99.90;;;;;;4893873;29;20053;-78
2022/01/02 09:38:23;;;;;;;16.55;8.20;;;11.30;99.90;;;;;;4895574;29;20131;-79
2022/01/02 09:40:49;;;;;;;15.93;5.00;;;11.20;99.90;;;;;;4892600;29;20048;-77
2022/01/02 09:43:19;;;;;;;11.80;4.57;;;11.30;99.90;;;;;;4889301;29;20059;-78
2022/01/02 09:45:45;;;;;;;15.48;5.63;;;11.30;99.90;;;;;;4879074;29;20045;-78
2022/01/02 09:48:11;;;;;;;10.48;5.70;;;11.30;99.90;;;;;;4894223;29;20056;-77
2022/01/02 09:50:39;;;;;;;11.43;5.53;;;11.40;99.90;;;;;;4892500;29;20111;-83
2022/01/02 09:53:05;;;;;;;12.50;5.43;;;11.40;99.90;;;;;;4893047;29;20442;-80
2022/01/02 09:55:31;;;;;;;9.57;5.15;;;11.40;99.90;;;;;;4894128;29;20049;-77
2022/01/02 09:57:59;;;;;;;13.57;6.05;;;11.40;99.90;;;;;;4878583;29;20497;-80
2022/01/02 10:00:26;;;;;;;12.57;4.95;;;11.40;99.90;;;;;;4878817;29;20076;-76
2022/01/02 10:03:02;;;;;;;14.05;5.18;;;11.50;99.90;;;;;;4894456;29;20059;-79
2022/01/02 10:05:30;;;;;;;12.63;4.82;;;11.50;99.90;;;;;;4874933;29;20180;-78
2022/01/02 10:07:57;;;;;;;12.35;5.35;;;11.50;99.90;;;;;;4888733;29;20053;-77
2022/01/02 10:10:33;;;;;;;12.55;5.30;;;11.60;99.90;;;;;;4882546;29;20088;-78
2022/01/02 10:12:59;;;;;;;;;;;11.60;99.90;;;;;;4898261;29;20057;-78
2022/01/02 10:15:25;;;;;;;9.68;5.15;;;11.50;99.90;;;;;;4898412;29;19934;-76
2022/01/02 10:17:56;;;;;;;13.10;5.95;;;11.50;99.90;;;;;;4896801;29;20049;-77
2022/01/02 10:20:35;;;;;;;9.00;4.85;;;11.50;99.90;;;;;;4895889;29;20137;-79
2022/01/02 10:23:12;;;;;;;10.98;5.97;;;11.50;99.90;;;;;;4896419;29;20491;-79
2022/01/02 10:25:39;;;;;;;11.95;5.97;;;11.50;99.90;;;;;;4892856;29;20128;-79
2022/01/02 10:28:21;;;;;;;12.20;5.90;;;11.50;99.90;;;;;;4892369;29;20055;-78
2022/01/02 10:30:49;;;;;;;11.43;6.72;;;11.50;99.90;;;;;;4892179;29;20052;-80
2022/01/02 10:33:15;;;;;;;15.05;7.00;;;11.50;99.90;;;;;;4895638;29;20083;-76
2022/01/02 10:35:41;;;;;;;15.88;6.88;;;11.50;99.90;;;;;;4895440;29;20076;-80
2022/01/02 10:38:15;;;;;;;11.70;6.38;;;11.50;99.90;;;;;;4875938;29;20853;-78
2022/01/02 10:40:42;;;;;;;14.65;6.60;;;11.50;99.90;;;;;;4894783;29;20058;-82
2022/01/02 10:43:31;;;;;;;12.73;6.03;;;11.50;99.90;;;;;;4894843;29;20051;-77
2022/01/02 10:45:59;;;;;;;11.88;5.85;;;11.50;99.90;;;;;;4894254;29;20053;-78
2022/01/02 10:48:34;;;;;;;12.63;6.72;;;11.50;99.90;;;;;;4900701;29;20529;-81
2022/01/02 10:51:06;;;;;;;13.95;6.38;;;11.50;99.90;;;;;;4876717;29;20562;-78
2022/01/02 10:53:34;;;;;;;14.40;6.50;;;11.50;99.90;;;;;;4896787;29;20084;-77
2022/01/02 10:56:02;;;;;;;10.55;5.50;;;11.50;99.90;;;;;;4894809;29;20380;-77
2022/01/02 10:58:28;;;;;;;11.27;5.97;;;11.50;99.90;;;;;;4895643;29;20615;-76
2022/01/02 11:01:01;;;;;;;15.45;5.78;;;11.50;99.90;;;;;;4893903;29;20060;-77
2022/01/02 11:03:30;;;;;;;10.95;5.70;;;11.60;99.90;;;;;;4877553;29;20135;-77
2022/01/02 11:06:07;;;;;;;10.27;6.00;;;11.60;99.90;;;;;;4878363;29;20049;-77
2022/01/02 11:08:35;;;;;;;12.45;5.53;;;11.60;99.90;;;;;;4894103;29;20140;-76
2022/01/02 11:11:02;;;;;;;8.27;5.20;;;11.60;99.90;;;;;;4893811;29;20052;-77
2022/01/02 11:13:28;;;;;;;9.88;5.47;;;11.60;99.90;;;;;;4895386;29;20841;-77
2022/01/02 11:15:54;;;;;;;9.10;5.97;;;11.60;99.90;;;;;;4894380;29;20414;-78
2022/01/02 11:18:21;;;;;;;10.32;5.68;;;11.60;99.90;;;;;;4894174;29;20036;-80
2022/01/02 11:20:47;;;;;;;17.70;6.40;;;11.60;99.90;;;;;;4892188;29;20092;-80
2022/01/02 11:23:21;;;;;;;11.90;5.30;;;11.50;99.90;;;;;;4893197;29;20574;-78
2022/01/02 11:26:02;;;;;;;12.02;4.97;;;11.50;99.90;;;;;;4909555;29;20067;-83
2022/01/02 11:28:47;;;;;;;11.02;5.57;;;11.50;99.90;;;;;;4901966;29;20059;-81
2022/01/02 11:31:28;;;;;;;8.65;5.13;;;11.50;99.90;;;;;;4896984;29;20058;-80
2022/01/02 11:33:53;;;;;;;12.57;4.35;;;11.50;99.90;;;;;;4899432;29;20064;-78
2022/01/02 11:36:30;;;;;;;11.77;5.45;;;11.40;99.90;;;;;;4895242;29;20056;-80
2022/01/02 11:39:05;;;;;;;15.88;6.35;;;11.40;99.90;;;;;;4866425;29;20052;-78
2022/01/02 11:41:42;;;;;;;10.23;5.47;;;11.50;99.90;;;;;;4898015;29;20062;-79
2022/01/02 11:44:16;;;;;;;11.50;5.65;;;11.50;99.90;;;;;;4896973;29;20063;-79
2022/01/02 11:46:56;;;;;;;12.40;5.82;;;11.50;99.90;;;;;;4897628;29;20140;-78
2022/01/02 11:49:26;;;;;;;11.65;5.43;;;11.50;99.90;;;;;;4898231;29;20056;-77
2022/01/02 11:51:53;;;;;;;8.13;4.35;;;11.50;99.90;;;;;;4897303;29;20067;-78
2022/01/02 11:54:41;;;;;;;10.00;5.32;;;11.50;99.90;;;;;;4895208;29;20067;-78
2022/01/02 11:57:15;;;;;;;9.18;4.03;;;11.50;99.90;;;;;;4890612;29;20082;-81
2022/01/02 11:59:45;;;;;;;8.07;4.10;;;11.50;99.90;;;;;;4879578;29;20135;-79
2022/01/02 12:02:26;;;;;;;11.20;4.93;;;11.60;99.90;;;;;;4896791;29;20094;-80
2022/01/02 12:04:58;;;;;;;11.77;4.88;;;11.60;99.90;;;;;;4897571;29;20232;-78
2022/01/02 12:07:33;;;;;;;9.70;4.20;;;11.60;99.90;;;;;;4877124;29;20056;-80
2022/01/02 12:10:17;;;;;;;10.65;4.30;;;11.60;99.90;;;;;;4889524;29;20052;-78
2022/01/02 12:15:35;;;;;;;13.70;3.47;;;11.70;99.90;;;;;;4896393;29;20070;-82
2022/01/02 12:18:05;;;;;;;11.25;3.63;;;11.70;99.90;;;;;;4895230;29;20055;-78
2022/01/02 12:20:56;;;;;;;12.65;3.05;;;11.70;99.90;;;;;;4879737;29;20131;-80
2022/01/02 12:23:34;;;;;;;8.40;3.33;;;11.70;99.90;;;;;;4894716;29;20052;-81
2022/01/02 12:26:01;;;;;;;11.55;3.13;;;11.60;99.90;;;;;;4895414;29;20067;-79
2022/01/02 12:28:40;;;;;;;10.00;2.83;;;11.60;99.90;;;;;;4895806;29;20112;-82
2022/01/02 12:31:07;;;;;;;9.73;2.60;;;11.60;99.90;;;;;;4895978;29;20055;-81
2022/01/02 12:33:35;;;;;;;10.15;2.65;;;11.60;99.90;;;;;;4896819;29;20067;-78
2022/01/02 12:36:19;;;;;;;13.43;3.05;;;11.70;99.90;;;;;;4897298;29;20402;-78
2022/01/02 12:38:49;;;;;;;13.07;2.25;;;11.70;99.90;;;;;;4896877;29;20048;-79
2022/01/02 12:41:16;;;;;;;14.77;3.00;;;11.70;99.90;;;;;;4898042;29;20099;-79
2022/01/02 12:43:53;;;;;;;11.32;2.95;;;11.80;99.90;;;;;;4899774;29;20135;-78
2022/01/02 12:46:44;;;;;;;12.80;3.63;;;11.70;99.90;;;;;;4898580;29;20056;-78
2022/01/02 12:49:13;;;;;;;10.38;2.65;;;11.80;99.90;;;;;;4895642;29;20048;-81
2022/01/02 12:51:50;;;;;;;14.80;2.83;;;11.80;99.90;;;;;;4898175;29;20048;-82
2022/01/02 12:54:18;;;;;;;10.00;2.65;;;11.70;99.90;;;;;;4880871;29;20040;-81
2022/01/02 12:56:46;;;;;;;10.25;2.88;;;11.80;99.90;;;;;;4896870;29;20044;-81